createdAt,value
2018-10-21T00:00:58.287Z,6.13
2018-10-21T00:03:26.255Z,5.27
2018-10-21T00:05:54.319Z,6.10
2018-10-21T00:08:22.295Z,4.90
2018-10-21T00:10:50.281Z,4.70
2018-10-21T00:13:18.218Z,5.20
2018-10-21T00:15:46.257Z,5.27
2018-10-21T00:18:14.203Z,5.53
2018-10-21T00:20:42.150Z,5.63
2018-10-21T00:23:10.288Z,5.07
2018-10-21T00:25:38.280Z,5.27
2018-10-21T00:28:06.455Z,5.27
2018-10-21T00:30:34.339Z,5.33
2018-10-21T00:33:02.312Z,6.77
2018-10-21T00:35:30.267Z,6.20
2018-10-21T00:37:58.227Z,5.43
2018-10-21T00:40:26.211Z,5.70
2018-10-21T00:42:54.185Z,6.10
2018-10-21T00:45:22.132Z,5.97
2018-10-21T00:47:50.111Z,6.40
2018-10-21T00:50:18.079Z,6.40
2018-10-21T00:52:46.035Z,7.53
2018-10-21T00:55:14.003Z,6.93
2018-10-21T00:57:42.053Z,6.53
2018-10-21T01:00:11.756Z,6.00
2018-10-21T01:02:39.753Z,6.13
2018-10-21T01:05:08.558Z,7.50
2018-10-21T01:07:36.520Z,8.33
2018-10-21T01:10:05.003Z,7.37
2018-10-21T01:12:32.983Z,7.13
2018-10-21T01:15:00.961Z,6.87
2018-10-21T01:17:30.684Z,7.20
2018-10-21T01:19:58.700Z,6.53
2018-10-21T01:22:26.755Z,6.60
2018-10-21T01:24:54.757Z,6.53
2018-10-21T01:27:22.742Z,7.23
2018-10-21T01:29:50.706Z,6.57
2018-10-21T01:32:18.671Z,6.60
2018-10-21T01:34:46.768Z,7.67
2018-10-21T01:37:15.028Z,6.27
2018-10-21T01:40:47.507Z,6.03
2018-10-21T01:43:16.713Z,5.80
2018-10-21T01:45:44.939Z,5.77
2018-10-21T01:48:14.730Z,5.13
2018-10-21T01:50:42.659Z,5.63
2018-10-21T01:53:11.532Z,6.37
2018-10-21T01:55:39.575Z,6.17
2018-10-21T01:58:07.712Z,5.67
2018-10-21T02:00:35.957Z,6.33
2018-10-21T02:03:04.277Z,5.20
2018-10-21T02:05:32.596Z,5.77
2018-10-21T02:08:00.595Z,5.50
2018-10-21T02:10:28.528Z,6.50
2018-10-21T02:12:56.704Z,6.03
2018-10-21T02:15:24.807Z,7.30
2018-10-21T02:17:52.793Z,7.40
2018-10-21T02:20:21.370Z,7.33
2018-10-21T02:22:49.708Z,7.67
2018-10-21T02:25:17.696Z,7.40
2018-10-21T02:27:46.371Z,8.03
2018-10-21T02:30:16.700Z,7.67
2018-10-21T02:32:45.503Z,7.40
2018-10-21T02:35:13.882Z,7.23
2018-10-21T02:37:42.064Z,8.10
2018-10-21T02:40:15.560Z,6.83
2018-10-21T02:42:43.524Z,7.23
2018-10-21T02:45:11.488Z,7.60
2018-10-21T02:47:39.352Z,7.50
2018-10-21T02:50:07.316Z,7.43
2018-10-21T02:52:35.284Z,7.40
2018-10-21T02:55:03.238Z,7.60
2018-10-21T02:57:31.119Z,7.77
2018-10-21T02:59:59.024Z,8.53
2018-10-21T03:02:26.976Z,8.10
2018-10-21T03:04:54.927Z,7.97
2018-10-21T03:07:29.272Z,6.77
2018-10-21T03:09:57.223Z,6.17
2018-10-21T03:12:25.189Z,6.90
2018-10-21T03:14:53.126Z,8.00
2018-10-21T03:17:21.013Z,7.20
2018-10-21T03:19:48.996Z,7.20
2018-10-21T03:22:16.982Z,6.80
2018-10-21T03:24:44.917Z,6.60
2018-10-21T03:27:12.843Z,6.43
2018-10-21T03:29:40.769Z,6.20
2018-10-21T03:32:08.810Z,5.77
2018-10-21T03:34:36.731Z,6.10
2018-10-21T03:37:05.012Z,6.03
2018-10-21T03:39:33.057Z,6.30
2018-10-21T03:42:01.034Z,6.47
2018-10-21T03:44:29.024Z,6.27
2018-10-21T03:46:56.956Z,6.03
2018-10-21T03:49:24.907Z,6.37
2018-10-21T03:51:52.888Z,6.00
2018-10-21T03:54:35.075Z,7.53
2018-10-21T03:57:02.982Z,6.43
2018-10-21T03:59:30.939Z,5.60
2018-10-21T04:01:58.803Z,6.20
2018-10-21T04:04:26.791Z,5.20
2018-10-21T04:06:54.702Z,6.07
2018-10-21T04:09:22.702Z,6.17
2018-10-21T04:11:50.688Z,5.20
2018-10-21T04:14:18.647Z,5.57
2018-10-21T04:16:46.547Z,5.50
2018-10-21T04:19:14.471Z,5.87
2018-10-21T04:21:42.452Z,5.73
2018-10-21T04:24:10.555Z,6.77
2018-10-21T04:26:38.507Z,5.63
2018-10-21T04:29:06.463Z,6.63
2018-10-21T04:31:34.393Z,6.43
2018-10-21T04:34:02.489Z,6.93
2018-10-21T04:36:31.379Z,6.73
2018-10-21T04:39:30.308Z,6.70
2018-10-21T04:41:58.257Z,6.40
2018-10-21T04:44:26.247Z,5.73
2018-10-21T04:46:54.287Z,5.67
2018-10-21T04:49:22.083Z,5.80
2018-10-21T04:51:51.883Z,6.23
2018-10-21T04:54:19.868Z,6.00
2018-10-21T04:56:47.883Z,6.30
2018-10-21T04:59:15.797Z,6.10
2018-10-21T05:01:43.762Z,5.30
2018-10-21T05:04:11.784Z,6.50
2018-10-21T05:06:39.690Z,6.73
2018-10-21T05:09:07.721Z,6.53
2018-10-21T05:11:35.625Z,6.23
2018-10-21T05:14:03.621Z,6.33
2018-10-21T05:16:31.631Z,6.07
2018-10-21T05:18:59.559Z,5.90
2018-10-21T05:21:28.343Z,5.70
2018-10-21T05:23:56.457Z,5.83
2018-10-21T05:26:24.630Z,6.10
2018-10-21T05:28:52.555Z,5.90
2018-10-21T05:31:20.634Z,5.40
2018-10-21T05:33:48.562Z,5.80
2018-10-21T05:36:16.504Z,5.00
2018-10-21T05:38:44.510Z,5.97
2018-10-21T05:41:12.524Z,5.57
2018-10-21T05:43:40.452Z,8.40
2018-10-21T05:46:08.367Z,5.57
2018-10-21T05:48:36.351Z,5.23
2018-10-21T05:51:04.455Z,6.50
2018-10-21T05:53:32.398Z,6.53
2018-10-21T05:56:00.402Z,6.57
2018-10-21T05:58:28.496Z,7.10
2018-10-21T06:00:56.330Z,6.53
2018-10-21T06:03:24.211Z,7.00
2018-10-21T06:05:52.151Z,7.07
2018-10-21T06:08:20.155Z,6.97
2018-10-21T06:10:48.072Z,8.13
2018-10-21T06:13:15.970Z,7.47
2018-10-21T06:15:43.883Z,7.70
2018-10-21T06:18:16.130Z,7.97
2018-10-21T06:20:48.581Z,13.10
2018-10-21T06:23:16.554Z,8.00
2018-10-21T06:25:44.447Z,6.90
2018-10-21T06:28:12.383Z,7.40
2018-10-21T06:30:40.370Z,8.20
2018-10-21T06:33:08.354Z,9.10
2018-10-21T06:35:36.202Z,7.77
2018-10-21T06:38:04.501Z,7.37
2018-10-21T06:40:32.465Z,7.30
2018-10-21T06:43:00.414Z,6.37
2018-10-21T06:45:28.364Z,7.27
2018-10-21T06:47:56.224Z,6.80
2018-10-21T06:50:24.231Z,10.20
2018-10-21T06:52:52.183Z,7.53
2018-10-21T06:55:20.177Z,7.07
2018-10-21T06:57:48.270Z,8.17
2018-10-21T07:00:16.210Z,6.93
2018-10-21T07:02:44.290Z,6.67
2018-10-21T07:05:18.005Z,7.57
2018-10-21T07:07:46.059Z,7.47
2018-10-21T07:10:14.058Z,7.77
2018-10-21T07:12:42.213Z,6.70
2018-10-21T07:15:10.191Z,6.80
2018-10-21T07:17:38.132Z,7.57
2018-10-21T07:20:06.326Z,7.90
2018-10-21T07:22:34.267Z,10.57
2018-10-21T07:25:02.220Z,7.83
2018-10-21T07:27:30.226Z,7.57
2018-10-21T07:29:58.178Z,7.17
2018-10-21T07:32:26.167Z,6.90
2018-10-21T07:34:54.115Z,7.17
2018-10-21T07:37:22.090Z,7.23
2018-10-21T07:39:50.055Z,7.07
2018-10-21T07:42:18.027Z,8.10
2018-10-21T07:44:46.023Z,7.57
2018-10-21T07:47:13.971Z,7.30
2018-10-21T07:49:42.051Z,7.60
2018-10-21T07:52:10.169Z,17.80
2018-10-21T07:54:38.182Z,7.40
2018-10-21T07:57:06.169Z,6.33
2018-10-21T07:59:34.131Z,6.60
2018-10-21T08:02:02.081Z,6.50
2018-10-21T08:04:30.076Z,6.37
2018-10-21T08:07:03.887Z,6.13
2018-10-21T08:09:33.398Z,6.67
2018-10-21T08:12:01.639Z,6.57
2018-10-21T08:14:29.731Z,6.80
2018-10-21T08:16:57.664Z,6.63
2018-10-21T08:19:25.957Z,6.47
2018-10-21T08:21:54.095Z,6.00
2018-10-21T08:24:22.578Z,5.90
2018-10-21T08:26:50.584Z,6.83
2018-10-21T08:29:18.542Z,6.50
2018-10-21T08:31:46.427Z,6.37
2018-10-21T08:34:14.431Z,7.50
2018-10-21T08:36:42.463Z,6.60
2018-10-21T08:39:10.378Z,6.30
2018-10-21T08:41:38.407Z,6.80
2018-10-21T08:44:06.380Z,7.43
2018-10-21T08:46:34.402Z,6.90
2018-10-21T08:49:02.436Z,5.77
2018-10-21T08:51:30.367Z,6.67
2018-10-21T08:53:58.338Z,6.23
2018-10-21T08:56:26.325Z,6.13
2018-10-21T08:58:54.278Z,5.83
2018-10-21T09:01:22.350Z,6.27
2018-10-21T09:03:50.439Z,6.57
2018-10-21T09:06:18.514Z,6.27
2018-10-21T09:08:46.539Z,5.97
2018-10-21T09:11:14.664Z,5.73
2018-10-21T09:13:42.787Z,5.97
2018-10-21T09:16:10.947Z,5.53
2018-10-21T09:18:38.864Z,5.60
2018-10-21T09:21:06.930Z,6.00
2018-10-21T09:23:34.919Z,6.23
2018-10-21T09:26:02.947Z,6.13
2018-10-21T09:28:30.930Z,6.10
2018-10-21T09:30:59.137Z,6.13
2018-10-21T09:33:27.136Z,5.37
2018-10-21T09:35:55.155Z,5.47
2018-10-21T09:38:23.139Z,5.00
2018-10-21T09:40:51.104Z,5.13
2018-10-21T09:43:19.054Z,15.60
2018-10-21T09:45:47.127Z,5.07
2018-10-21T09:48:15.091Z,5.00
2018-10-21T09:50:43.175Z,4.80
2018-10-21T09:53:11.307Z,4.93
2018-10-21T09:55:39.351Z,4.53
2018-10-21T09:58:07.505Z,4.10
2018-10-21T10:00:41.027Z,4.23
2018-10-21T10:03:09.376Z,5.20
2018-10-21T10:05:37.327Z,4.37
2018-10-21T10:08:05.432Z,4.33
2018-10-21T10:10:33.479Z,4.40
2018-10-21T10:13:01.681Z,4.27
2018-10-21T10:15:29.723Z,4.10
2018-10-21T10:17:57.686Z,4.33
2018-10-21T10:20:25.767Z,5.47
2018-10-21T10:22:53.734Z,5.83
2018-10-21T10:25:21.755Z,4.20
2018-10-21T10:27:49.705Z,3.13
2018-10-21T10:30:17.715Z,3.30
2018-10-21T10:32:45.825Z,3.20
2018-10-21T10:35:14.472Z,2.80
2018-10-21T10:37:42.462Z,4.80
2018-10-21T10:42:45.675Z,4.07
2018-10-21T10:45:13.690Z,8.17
2018-10-21T10:47:41.720Z,3.57
2018-10-21T10:50:14.669Z,4.33
2018-10-21T10:52:42.782Z,5.03
2018-10-21T10:55:10.767Z,4.97
2018-10-21T10:57:38.691Z,3.73
2018-10-21T11:02:41.883Z,3.40
2018-10-21T11:05:10.305Z,3.67
2018-10-21T11:07:38.788Z,3.83
2018-10-21T11:10:07.474Z,3.60
2018-10-21T11:12:35.436Z,3.30
2018-10-21T11:15:03.376Z,3.17
2018-10-21T11:17:31.260Z,3.10
2018-10-21T11:19:59.131Z,2.90
2018-10-21T11:22:27.165Z,2.83
2018-10-21T11:24:55.861Z,2.70
2018-10-21T11:27:25.370Z,2.43
2018-10-21T11:29:53.494Z,2.30
2018-10-21T11:32:21.643Z,2.07
2018-10-21T11:34:49.616Z,2.63
2018-10-21T11:37:18.315Z,2.80
2018-10-21T11:42:20.704Z,2.70
2018-10-21T11:44:48.640Z,2.83
2018-10-21T11:47:16.530Z,2.87
2018-10-21T11:49:44.488Z,2.87
2018-10-21T11:52:12.816Z,2.90
2018-10-21T11:54:40.846Z,2.20
2018-10-21T11:57:09.420Z,2.27
2018-10-21T11:59:37.792Z,2.53
2018-10-21T12:02:05.861Z,2.50
2018-10-21T12:04:33.942Z,2.80
2018-10-21T12:07:01.952Z,3.00
2018-10-21T12:09:29.946Z,3.23
2018-10-21T12:11:58.034Z,2.80
2018-10-21T12:14:26.059Z,2.80
2018-10-21T12:16:54.177Z,3.00
2018-10-21T12:19:22.374Z,2.50
2018-10-21T12:21:50.351Z,2.63
2018-10-21T12:24:18.494Z,3.20
2018-10-21T12:26:47.322Z,3.10
2018-10-21T12:29:21.227Z,3.50
2018-10-21T12:31:50.113Z,3.50
2018-10-21T12:34:18.136Z,3.00
2018-10-21T12:36:46.027Z,2.90
2018-10-21T12:39:14.012Z,3.60
2018-10-21T12:41:42.514Z,3.27
2018-10-21T12:44:10.783Z,3.20
2018-10-21T12:46:39.839Z,2.77
2018-10-21T12:49:07.978Z,3.70
2018-10-21T12:51:41.015Z,3.37
2018-10-21T12:54:09.672Z,2.83
2018-10-21T12:56:37.581Z,3.10
2018-10-21T12:59:05.644Z,2.93
2018-10-21T13:01:33.826Z,3.37
2018-10-21T13:04:02.157Z,3.10
2018-10-21T13:06:30.271Z,3.20
2018-10-21T13:08:58.328Z,3.10
2018-10-21T13:11:26.715Z,3.40
2018-10-21T13:13:54.582Z,3.20
2018-10-21T13:16:22.535Z,3.30
2018-10-21T13:18:50.610Z,3.73
2018-10-21T13:21:18.563Z,3.53
2018-10-21T13:23:46.547Z,3.50
2018-10-21T13:26:14.739Z,3.10
2018-10-21T13:28:42.814Z,3.17
2018-10-21T13:31:11.226Z,3.10
2018-10-21T13:33:39.374Z,3.03
2018-10-21T13:36:07.543Z,3.43
2018-10-21T13:38:35.988Z,3.37
2018-10-21T13:41:05.574Z,3.83
2018-10-21T13:43:34.012Z,3.30
2018-10-21T13:46:03.234Z,2.83
2018-10-21T13:48:31.589Z,2.70
2018-10-21T13:51:00.990Z,2.80
2018-10-21T13:53:29.129Z,3.53
2018-10-21T13:56:01.617Z,2.90
2018-10-21T13:58:32.045Z,3.03
2018-10-21T14:01:03.654Z,3.90
2018-10-21T14:03:32.078Z,4.20
2018-10-21T14:06:00.454Z,2.60
2018-10-21T14:08:28.408Z,2.87
2018-10-21T14:11:00.732Z,2.93
2018-10-21T14:13:28.653Z,2.57
2018-10-21T14:15:56.806Z,2.67
2018-10-21T14:18:28.910Z,2.20
2018-10-21T14:20:57.165Z,2.63
2018-10-21T14:23:30.578Z,2.57
2018-10-21T14:25:58.859Z,2.77
2018-10-21T14:28:26.804Z,2.80
2018-10-21T14:30:54.996Z,2.70
2018-10-21T14:33:23.095Z,2.87
2018-10-21T14:35:51.046Z,2.80
2018-10-21T14:38:19.185Z,2.90
2018-10-21T14:40:47.190Z,2.47
2018-10-21T14:43:15.146Z,2.77
2018-10-21T14:45:43.317Z,2.87
2018-10-21T14:48:11.302Z,2.47
2018-10-21T14:50:40.071Z,2.30
2018-10-21T14:53:08.176Z,2.40
2018-10-21T14:55:36.217Z,2.20
2018-10-21T14:58:05.863Z,2.70
2018-10-21T15:00:35.612Z,2.60
2018-10-21T15:03:08.894Z,7.10
2018-10-21T15:05:36.815Z,2.03
2018-10-21T15:08:04.950Z,2.97
2018-10-21T15:10:32.928Z,2.37
2018-10-21T15:13:01.027Z,2.60
2018-10-21T15:15:29.118Z,2.23
2018-10-21T15:17:57.107Z,3.17
2018-10-21T15:20:25.107Z,2.60
2018-10-21T15:22:53.358Z,2.70
2018-10-21T15:25:21.379Z,2.80
2018-10-21T15:27:49.355Z,2.47
2018-10-21T15:30:23.852Z,3.27
2018-10-21T15:32:51.731Z,2.73
2018-10-21T15:35:19.772Z,2.53
2018-10-21T15:37:47.897Z,2.63
2018-10-21T15:40:16.329Z,2.17
2018-10-21T15:42:44.360Z,1.90
2018-10-21T15:45:12.590Z,2.13
2018-10-21T15:47:40.812Z,2.07
2018-10-21T15:50:09.213Z,2.50
2018-10-21T15:52:37.570Z,2.40
2018-10-21T15:55:06.013Z,1.80
2018-10-21T15:57:34.086Z,16.70
2018-10-21T16:00:03.706Z,6.37
2018-10-21T16:02:31.770Z,2.43
2018-10-21T16:04:59.951Z,2.07
2018-10-21T16:07:27.985Z,2.17
2018-10-21T16:09:56.085Z,2.07
2018-10-21T16:12:24.164Z,2.33
2018-10-21T16:14:52.113Z,1.90
2018-10-21T16:17:20.399Z,1.93
2018-10-21T16:19:48.337Z,2.10
2018-10-21T16:22:16.317Z,1.90
2018-10-21T16:24:44.403Z,2.23
2018-10-21T16:27:12.379Z,1.70
2018-10-21T16:29:40.428Z,1.93
2018-10-21T16:32:10.098Z,1.87
2018-10-21T16:34:38.234Z,2.17
2018-10-21T16:37:06.206Z,2.03
2018-10-21T16:39:34.184Z,2.10
2018-10-21T16:42:02.145Z,2.20
2018-10-21T16:44:30.163Z,2.00
2018-10-21T16:46:58.167Z,2.03
2018-10-21T16:49:26.342Z,2.47
2018-10-21T16:51:54.306Z,2.10
2018-10-21T16:54:22.474Z,1.90
2018-10-21T16:56:50.482Z,2.47
2018-10-21T16:59:18.535Z,2.37
2018-10-21T17:01:47.096Z,2.00
2018-10-21T17:04:17.555Z,2.50
2018-10-21T17:06:45.612Z,2.47
2018-10-21T17:09:14.413Z,2.90
2018-10-21T17:11:42.779Z,2.83
2018-10-21T17:14:11.264Z,2.87
2018-10-21T17:16:39.510Z,2.90
2018-10-21T17:19:07.647Z,3.20
2018-10-21T17:21:35.695Z,3.23
2018-10-21T17:24:03.685Z,2.60
2018-10-21T17:26:31.724Z,2.60
2018-10-21T17:28:59.845Z,2.67
2018-10-21T17:31:27.823Z,2.30
2018-10-21T17:33:55.852Z,2.90
2018-10-21T17:36:23.809Z,2.47
2018-10-21T17:38:51.880Z,2.90
2018-10-21T17:41:20.156Z,2.63
2018-10-21T17:43:48.236Z,2.60
2018-10-21T17:46:16.479Z,3.17
2018-10-21T17:48:44.563Z,2.63
2018-10-21T17:51:12.629Z,2.83
2018-10-21T17:53:40.685Z,2.53
2018-10-21T17:56:08.893Z,2.90
2018-10-21T17:58:38.371Z,2.33
2018-10-21T18:01:06.652Z,2.70
2018-10-21T18:03:35.837Z,3.60
2018-10-21T18:06:04.039Z,3.13
2018-10-21T18:08:32.095Z,2.40
2018-10-21T18:11:00.163Z,2.67
2018-10-21T18:13:28.251Z,2.97
2018-10-21T18:15:56.812Z,3.23
2018-10-21T18:18:24.833Z,2.50
2018-10-21T18:20:52.855Z,3.43
2018-10-21T18:23:20.734Z,3.07
2018-10-21T18:25:48.850Z,3.40
2018-10-21T18:28:16.971Z,3.20
2018-10-21T18:30:44.954Z,2.60
2018-10-21T18:33:13.008Z,2.70
2018-10-21T18:35:41.194Z,2.73
2018-10-21T18:38:09.431Z,3.80
2018-10-21T18:40:37.593Z,2.87
2018-10-21T18:43:06.191Z,2.67
2018-10-21T18:45:34.315Z,3.43
2018-10-21T18:48:02.488Z,2.83
2018-10-21T18:50:30.746Z,3.17
2018-10-21T18:52:58.832Z,3.33
2018-10-21T18:55:26.790Z,3.33
2018-10-21T18:57:55.205Z,3.40
2018-10-21T19:00:23.345Z,3.20
2018-10-21T19:02:51.410Z,3.60
2018-10-21T19:05:19.390Z,3.60
2018-10-21T19:07:47.355Z,3.33
2018-10-21T19:10:15.951Z,3.23
2018-10-21T19:12:43.986Z,3.60
2018-10-21T19:15:12.911Z,3.40
2018-10-21T19:17:41.587Z,3.30
2018-10-21T19:20:11.619Z,3.60
2018-10-21T19:22:39.649Z,3.30
2018-10-21T19:25:08.134Z,3.40
2018-10-21T19:27:36.098Z,3.17
2018-10-21T19:30:04.614Z,3.80
2018-10-21T19:32:32.573Z,3.73
2018-10-21T19:35:02.096Z,3.17
2018-10-21T19:37:30.181Z,3.50
2018-10-21T19:39:58.233Z,3.10
2018-10-21T19:42:26.154Z,3.50
2018-10-21T19:44:54.211Z,3.20
2018-10-21T19:47:22.219Z,3.73
2018-10-21T19:49:50.311Z,3.27
2018-10-21T19:52:21.355Z,3.70
2018-10-21T19:54:49.390Z,2.93
2018-10-21T19:57:17.502Z,3.20
2018-10-21T19:59:45.454Z,3.37
2018-10-21T20:02:13.539Z,3.80
2018-10-21T20:04:41.688Z,3.47
2018-10-21T20:07:10.621Z,3.57
2018-10-21T20:09:38.559Z,3.60
2018-10-21T20:12:06.666Z,3.50
2018-10-21T20:14:34.673Z,3.77
2018-10-21T20:17:02.575Z,3.97
2018-10-21T20:19:30.627Z,3.33
2018-10-21T20:21:58.738Z,3.80
2018-10-21T20:24:26.607Z,3.23
2018-10-21T20:26:54.548Z,3.40
2018-10-21T20:29:22.511Z,4.37
2018-10-21T20:31:50.571Z,4.03
2018-10-21T20:34:18.618Z,3.43
2018-10-21T20:36:46.518Z,3.47
2018-10-21T20:39:14.387Z,3.87
2018-10-21T20:41:42.360Z,3.50
2018-10-21T20:44:10.319Z,3.40
2018-10-21T20:46:38.510Z,4.43
2018-10-21T20:49:06.570Z,4.03
2018-10-21T20:51:35.306Z,4.37
2018-10-21T20:54:03.275Z,3.73
2018-10-21T20:56:31.309Z,3.90
2018-10-21T20:58:59.276Z,4.30
2018-10-21T21:01:27.316Z,4.50
2018-10-21T21:03:55.463Z,3.90
2018-10-21T21:06:24.898Z,3.77
2018-10-21T21:08:53.083Z,4.37
2018-10-21T21:11:21.050Z,3.87
2018-10-21T21:13:49.044Z,3.60
2018-10-21T21:16:17.315Z,4.40
2018-10-21T21:18:45.155Z,3.90
2018-10-21T21:21:13.228Z,4.20
2018-10-21T21:23:41.207Z,3.67
2018-10-21T21:26:09.299Z,3.63
2018-10-21T21:28:37.352Z,3.77
2018-10-21T21:31:05.390Z,4.83
2018-10-21T21:33:33.397Z,4.33
2018-10-21T21:36:01.589Z,4.60
2018-10-21T21:38:29.642Z,4.67
2018-10-21T21:40:57.719Z,4.17
2018-10-21T21:43:25.683Z,4.50
2018-10-21T21:45:53.645Z,4.60
2018-10-21T21:48:21.639Z,3.97
2018-10-21T21:50:49.582Z,4.13
2018-10-21T21:53:17.455Z,4.00
2018-10-21T21:55:45.495Z,3.87
2018-10-21T21:58:13.669Z,3.63
2018-10-21T22:00:41.558Z,3.70
2018-10-21T22:03:09.564Z,3.87
2018-10-21T22:05:37.479Z,4.30
2018-10-21T22:08:05.656Z,4.10
2018-10-21T22:10:33.776Z,3.40
2018-10-21T22:13:01.714Z,3.70
2018-10-21T22:15:29.686Z,3.40
2018-10-21T22:17:57.734Z,3.67
2018-10-21T22:20:25.683Z,3.53
2018-10-21T22:22:53.823Z,3.63
2018-10-21T22:25:21.752Z,3.33
2018-10-21T22:27:49.809Z,4.40
2018-10-21T22:30:18.002Z,3.30
2018-10-21T22:32:46.105Z,4.00
2018-10-21T22:35:14.175Z,3.83
2018-10-21T22:37:43.589Z,3.70
2018-10-21T22:40:11.606Z,3.43
2018-10-21T22:42:39.496Z,3.53
2018-10-21T22:45:08.102Z,3.50
2018-10-21T22:47:36.068Z,3.70
2018-10-21T22:50:04.548Z,3.67
2018-10-21T22:52:32.513Z,3.47
2018-10-21T22:55:00.382Z,4.00
2018-10-21T22:57:28.316Z,3.53
2018-10-21T22:59:56.342Z,4.20
2018-10-21T23:02:24.270Z,4.00
2018-10-21T23:04:52.155Z,4.37
2018-10-21T23:07:20.113Z,3.80
2018-10-21T23:09:48.089Z,4.30
2018-10-21T23:12:16.125Z,4.10
2018-10-21T23:14:44.027Z,4.13
2018-10-21T23:17:11.990Z,4.27
2018-10-21T23:19:42.412Z,4.00
2018-10-21T23:22:10.672Z,3.73
2018-10-21T23:24:39.086Z,3.60
2018-10-21T23:27:07.552Z,4.07
2018-10-21T23:29:35.532Z,4.50
2018-10-21T23:32:03.504Z,3.90
2018-10-21T23:34:31.470Z,4.00
2018-10-21T23:36:59.419Z,3.40
2018-10-21T23:39:29.407Z,3.70
2018-10-21T23:41:58.036Z,4.20
2018-10-21T23:44:25.983Z,4.13
2018-10-21T23:46:53.980Z,3.87
2018-10-21T23:49:21.941Z,4.40
2018-10-21T23:51:51.141Z,4.00
2018-10-21T23:54:18.996Z,4.23
2018-10-21T23:56:46.928Z,4.13
2018-10-21T23:59:14.943Z,3.50
